Wadena, Canada
Current Conditions -  °F | °C
As of 6:00 AM on Monday 26 Jan 2015 (Local Time) from CYQV Reporting Station
Broken Clouds Broken Clouds  
Wind Chill: 24°   Ceiling: 3700
Heat Index: 32°   Visibility: 9mi
Dew Point: 28°   Wind: 9mph
Humidity: 87%   Direction: 320°NW
Pressure: 29.8"   Gusts: NA
Location:  51.95°N, 103.8°W
Report Text: CYQV 261200Z AUTO 32008KT 9SM BKN037 00/M02 A2980 RMK PRESRR SLP115
Loading
Personal Weather Stations






























Interactive Weather Map New forecast layout! Learn more

10-Day Weather Forecast

Advertisements
Track Severe Weather on mobile